sensor_id;sensor_type;location;lat;lon;timestamp;pressure;altitude;pressure_sealevel;temperature;humidity
51289;BME280;37372;52.294;5.152;2022-10-22T00:00:59;100880.66;;;12.10;100.00
51289;BME280;37372;52.294;5.152;2022-10-22T00:03:24;100887.91;;;12.07;100.00
51289;BME280;37372;52.294;5.152;2022-10-22T00:05:49;100882.72;;;12.06;100.00
51289;BME280;37372;52.294;5.152;2022-10-22T00:08:14;100887.13;;;12.07;100.00
51289;BME280;37372;52.294;5.152;2022-10-22T00:10:40;100879.50;;;12.07;100.00
51289;BME280;37372;52.294;5.152;2022-10-22T00:13:06;100884.63;;;12.12;100.00
51289;BME280;37372;52.294;5.152;2022-10-22T00:15:31;100884.22;;;12.14;100.00
51289;BME280;37372;52.294;5.152;2022-10-22T00:17:56;100885.38;;;12.16;100.00
51289;BME280;37372;52.294;5.152;2022-10-22T00:20:22;100883.41;;;12.13;100.00
51289;BME280;37372;52.294;5.152;2022-10-22T00:22:47;100881.06;;;12.08;100.00
51289;BME280;37372;52.294;5.152;2022-10-22T00:25:13;100891.53;;;12.08;100.00
51289;BME280;37372;52.294;5.152;2022-10-22T00:27:38;100889.47;;;12.12;100.00
51289;BME280;37372;52.294;5.152;2022-10-22T00:30:04;100897.84;;;12.15;100.00
51289;BME280;37372;52.294;5.152;2022-10-22T00:32:29;100894.59;;;12.17;100.00
51289;BME280;37372;52.294;5.152;2022-10-22T00:34:55;100893.81;;;12.16;100.00
51289;BME280;37372;52.294;5.152;2022-10-22T00:37:20;100894.66;;;12.13;100.00
51289;BME280;37372;52.294;5.152;2022-10-22T00:39:45;100892.28;;;12.12;100.00
51289;BME280;37372;52.294;5.152;2022-10-22T00:42:17;100889.94;;;12.07;100.00
51289;BME280;37372;52.294;5.152;2022-10-22T00:45:04;100892.44;;;12.01;100.00
51289;BME280;37372;52.294;5.152;2022-10-22T00:47:47;100890.47;;;11.98;100.00
51289;BME280;37372;52.294;5.152;2022-10-22T00:50:18;100890.53;;;11.94;100.00
51289;BME280;37372;52.294;5.152;2022-10-22T00:52:44;100893.75;;;11.93;100.00
51289;BME280;37372;52.294;5.152;2022-10-22T00:55:10;100896.22;;;11.91;100.00
51289;BME280;37372;52.294;5.152;2022-10-22T00:57:37;100894.97;;;11.92;100.00
51289;BME280;37372;52.294;5.152;2022-10-22T01:00:03;100889.34;;;11.92;100.00
51289;BME280;37372;52.294;5.152;2022-10-22T01:02:29;100887.81;;;11.87;100.00
51289;BME280;37372;52.294;5.152;2022-10-22T01:04:54;100904.66;;;11.87;100.00
51289;BME280;37372;52.294;5.152;2022-10-22T01:07:21;100896.25;;;11.87;100.00
51289;BME280;37372;52.294;5.152;2022-10-22T01:10:12;100900.66;;;11.88;100.00
51289;BME280;37372;52.294;5.152;2022-10-22T01:13:13;100905.84;;;11.90;100.00
51289;BME280;37372;52.294;5.152;2022-10-22T01:15:56;100902.25;;;11.89;100.00
51289;BME280;37372;52.294;5.152;2022-10-22T01:21:35;100913.78;;;11.99;100.00
51289;BME280;37372;52.294;5.152;2022-10-22T01:26:42;100910.81;;;12.06;100.00
51289;BME280;37372;52.294;5.152;2022-10-22T01:29:26;100915.19;;;12.10;100.00
51289;BME280;37372;52.294;5.152;2022-10-22T01:31:58;100914.28;;;12.17;100.00
51289;BME280;37372;52.294;5.152;2022-10-22T01:34:25;100911.41;;;12.21;100.00
51289;BME280;37372;52.294;5.152;2022-10-22T01:36:52;100913.03;;;12.22;100.00
51289;BME280;37372;52.294;5.152;2022-10-22T01:39:19;100905.78;;;12.21;100.00
51289;BME280;37372;52.294;5.152;2022-10-22T01:41:47;100901.41;;;12.20;100.00
51289;BME280;37372;52.294;5.152;2022-10-22T01:44:33;100899.34;;;12.24;100.00
51289;BME280;37372;52.294;5.152;2022-10-22T01:47:06;100893.72;;;12.24;100.00
51289;BME280;37372;52.294;5.152;2022-10-22T01:53:23;100896.88;;;12.26;100.00
51289;BME280;37372;52.294;5.152;2022-10-22T01:55:46;100890.03;;;12.27;100.00
51289;BME280;37372;52.294;5.152;2022-10-22T01:58:24;100888.81;;;12.28;100.00
51289;BME280;37372;52.294;5.152;2022-10-22T02:00:59;100887.94;;;12.31;100.00
51289;BME280;37372;52.294;5.152;2022-10-22T02:03:32;100884.34;;;12.30;100.00
51289;BME280;37372;52.294;5.152;2022-10-22T02:06:03;100888.78;;;12.31;100.00
51289;BME280;37372;52.294;5.152;2022-10-22T02:08:31;100892.75;;;12.34;100.00
51289;BME280;37372;52.294;5.152;2022-10-22T02:10:58;100882.69;;;12.33;100.00
51289;BME280;37372;52.294;5.152;2022-10-22T02:13:40;100886.38;;;12.30;100.00
51289;BME280;37372;52.294;5.152;2022-10-22T02:16:08;100894.81;;;12.30;100.00
51289;BME280;37372;52.294;5.152;2022-10-22T02:18:37;100888.81;;;12.28;100.00
51289;BME280;37372;52.294;5.152;2022-10-22T02:21:05;100885.63;;;12.26;100.00
51289;BME280;37372;52.294;5.152;2022-10-22T02:23:31;100889.19;;;12.30;100.00
51289;BME280;37372;52.294;5.152;2022-10-22T02:26:15;100887.22;;;12.27;100.00
51289;BME280;37372;52.294;5.152;2022-10-22T02:31:21;100889.56;;;12.32;100.00
51289;BME280;37372;52.294;5.152;2022-10-22T02:33:51;100882.22;;;12.38;100.00
51289;BME280;37372;52.294;5.152;2022-10-22T02:36:18;100879.78;;;12.40;100.00
51289;BME280;37372;52.294;5.152;2022-10-22T02:38:45;100883.94;;;12.32;100.00
51289;BME280;37372;52.294;5.152;2022-10-22T02:41:12;100880.00;;;12.26;100.00
51289;BME280;37372;52.294;5.152;2022-10-22T02:43:40;100884.03;;;12.25;100.00
51289;BME280;37372;52.294;5.152;2022-10-22T02:46:06;100884.53;;;12.20;100.00
51289;BME280;37372;52.294;5.152;2022-10-22T02:48:31;100892.59;;;12.18;100.00
51289;BME280;37372;52.294;5.152;2022-10-22T02:50:57;100889.03;;;12.13;100.00
51289;BME280;37372;52.294;5.152;2022-10-22T02:53:22;100898.63;;;12.16;100.00
51289;BME280;37372;52.294;5.152;2022-10-22T02:55:47;100896.63;;;12.16;100.00
51289;BME280;37372;52.294;5.152;2022-10-22T02:58:13;100900.16;;;12.21;100.00
51289;BME280;37372;52.294;5.152;2022-10-22T03:00:38;100896.16;;;12.22;100.00
51289;BME280;37372;52.294;5.152;2022-10-22T03:03:04;100896.63;;;12.16;100.00
51289;BME280;37372;52.294;5.152;2022-10-22T03:05:29;100899.53;;;12.09;100.00
51289;BME280;37372;52.294;5.152;2022-10-22T03:07:54;100895.56;;;12.07;100.00
51289;BME280;37372;52.294;5.152;2022-10-22T03:10:20;100897.16;;;12.08;100.00
51289;BME280;37372;52.294;5.152;2022-10-22T03:12:45;100898.00;;;12.05;100.00
51289;BME280;37372;52.294;5.152;2022-10-22T03:15:11;100896.03;;;12.02;100.00
51289;BME280;37372;52.294;5.152;2022-10-22T03:17:36;100895.66;;;12.00;100.00
51289;BME280;37372;52.294;5.152;2022-10-22T03:20:02;100899.25;;;12.00;100.00
51289;BME280;37372;52.294;5.152;2022-10-22T03:22:28;100894.03;;;12.02;100.00
51289;BME280;37372;52.294;5.152;2022-10-22T03:24:59;100904.38;;;12.09;100.00
51289;BME280;37372;52.294;5.152;2022-10-22T03:27:28;100905.59;;;12.08;100.00
51289;BME280;37372;52.294;5.152;2022-10-22T03:29:54;100902.47;;;12.02;100.00
51289;BME280;37372;52.294;5.152;2022-10-22T03:32:20;100903.69;;;12.01;100.00
51289;BME280;37372;52.294;5.152;2022-10-22T03:34:46;100905.69;;;12.01;100.00
51289;BME280;37372;52.294;5.152;2022-10-22T03:37:12;100898.69;;;12.12;100.00
51289;BME280;37372;52.294;5.152;2022-10-22T03:39:38;100906.38;;;12.08;100.00
51289;BME280;37372;52.294;5.152;2022-10-22T03:42:04;100908.69;;;12.13;100.00
51289;BME280;37372;52.294;5.152;2022-10-22T03:44:31;100915.16;;;12.14;100.00
51289;BME280;37372;52.294;5.152;2022-10-22T03:46:57;100910.41;;;12.07;100.00
51289;BME280;37372;52.294;5.152;2022-10-22T03:49:22;100906.84;;;12.03;100.00
51289;BME280;37372;52.294;5.152;2022-10-22T03:51:48;100913.31;;;12.00;100.00
51289;BME280;37372;52.294;5.152;2022-10-22T03:54:14;100910.19;;;11.94;100.00
51289;BME280;37372;52.294;5.152;2022-10-22T03:56:40;100911.84;;;11.92;100.00
51289;BME280;37372;52.294;5.152;2022-10-22T03:59:05;100907.06;;;11.89;100.00
51289;BME280;37372;52.294;5.152;2022-10-22T04:01:31;100921.13;;;11.89;100.00
51289;BME280;37372;52.294;5.152;2022-10-22T04:03:57;100912.31;;;11.87;100.00
51289;BME280;37372;52.294;5.152;2022-10-22T04:06:23;100916.31;;;11.86;100.00
51289;BME280;37372;52.294;5.152;2022-10-22T04:08:49;100922.31;;;11.88;100.00
51289;BME280;37372;52.294;5.152;2022-10-22T04:11:15;100921.56;;;11.84;100.00
51289;BME280;37372;52.294;5.152;2022-10-22T04:13:40;100933.59;;;11.84;100.00
51289;BME280;37372;52.294;5.152;2022-10-22T04:16:18;100923.16;;;11.85;100.00
51289;BME280;37372;52.294;5.152;2022-10-22T04:18:45;100923.94;;;11.89;100.00
51289;BME280;37372;52.294;5.152;2022-10-22T04:21:13;100929.56;;;11.89;100.00
51289;BME280;37372;52.294;5.152;2022-10-22T04:23:38;100938.00;;;11.89;100.00
51289;BME280;37372;52.294;5.152;2022-10-22T04:26:08;100925.50;;;11.90;100.00
51289;BME280;37372;52.294;5.152;2022-10-22T04:28:34;100932.69;;;11.94;100.00
51289;BME280;37372;52.294;5.152;2022-10-22T04:30:59;100926.28;;;11.94;100.00
51289;BME280;37372;52.294;5.152;2022-10-22T04:33:24;100936.66;;;11.97;100.00
51289;BME280;37372;52.294;5.152;2022-10-22T04:35:50;100938.25;;;11.98;100.00
51289;BME280;37372;52.294;5.152;2022-10-22T04:38:15;100942.28;;;11.97;100.00
51289;BME280;37372;52.294;5.152;2022-10-22T04:40:41;100936.19;;;12.02;100.00
51289;BME280;37372;52.294;5.152;2022-10-22T04:43:06;100943.09;;;11.98;100.00
51289;BME280;37372;52.294;5.152;2022-10-22T04:45:32;100934.63;;;12.01;100.00
51289;BME280;37372;52.294;5.152;2022-10-22T04:47:58;100934.16;;;12.03;100.00
51289;BME280;37372;52.294;5.152;2022-10-22T04:50:23;100935.81;;;12.00;100.00
51289;BME280;37372;52.294;5.152;2022-10-22T04:52:48;100942.28;;;11.97;100.00
51289;BME280;37372;52.294;5.152;2022-10-22T04:55:14;100939.09;;;11.95;100.00
51289;BME280;37372;52.294;5.152;2022-10-22T04:57:39;100940.34;;;11.94;100.00
51289;BME280;37372;52.294;5.152;2022-10-22T05:00:05;100947.16;;;11.93;100.00
51289;BME280;37372;52.294;5.152;2022-10-22T05:02:31;100949.63;;;11.91;100.00
51289;BME280;37372;52.294;5.152;2022-10-22T05:04:56;100947.16;;;11.93;100.00
51289;BME280;37372;52.294;5.152;2022-10-22T05:07:21;100946.38;;;11.92;100.00
51289;BME280;37372;52.294;5.152;2022-10-22T05:09:48;100955.22;;;11.91;100.00
51289;BME280;37372;52.294;5.152;2022-10-22T05:12:13;100957.22;;;11.90;100.00
51289;BME280;37372;52.294;5.152;2022-10-22T05:14:38;100957.66;;;11.89;100.00
51289;BME280;37372;52.294;5.152;2022-10-22T05:17:04;100947.25;;;11.86;100.00
51289;BME280;37372;52.294;5.152;2022-10-22T05:19:30;100956.88;;;11.85;100.00
51289;BME280;37372;52.294;5.152;2022-10-22T05:21:58;100957.72;;;11.82;100.00
51289;BME280;37372;52.294;5.152;2022-10-22T05:24:24;100949.75;;;11.77;100.00
51289;BME280;37372;52.294;5.152;2022-10-22T05:26:51;100955.84;;;11.71;100.00
51289;BME280;37372;52.294;5.152;2022-10-22T05:29:18;100955.47;;;11.69;100.00
51289;BME280;37372;52.294;5.152;2022-10-22T05:31:43;100967.16;;;11.64;100.00
51289;BME280;37372;52.294;5.152;2022-10-22T05:34:09;100955.53;;;11.66;100.00
51289;BME280;37372;52.294;5.152;2022-10-22T05:36:34;100963.16;;;11.65;100.00
51289;BME280;37372;52.294;5.152;2022-10-22T05:39:00;100954.34;;;11.63;100.00
51289;BME280;37372;52.294;5.152;2022-10-22T05:41:26;100965.97;;;11.65;100.00
51289;BME280;37372;52.294;5.152;2022-10-22T05:43:56;100963.94;;;11.66;100.00
51289;BME280;37372;52.294;5.152;2022-10-22T05:46:23;100973.25;;;11.59;100.00
51289;BME280;37372;52.294;5.152;2022-10-22T05:48:54;100973.72;;;11.54;100.00
51289;BME280;37372;52.294;5.152;2022-10-22T05:51:20;100982.47;;;11.60;100.00
51289;BME280;37372;52.294;5.152;2022-10-22T05:53:50;100978.47;;;11.57;100.00
51289;BME280;37372;52.294;5.152;2022-10-22T05:56:17;100978.88;;;11.59;100.00
51289;BME280;37372;52.294;5.152;2022-10-22T05:58:43;100986.09;;;11.60;100.00
51289;BME280;37372;52.294;5.152;2022-10-22T06:01:17;100984.47;;;11.63;100.00
51289;BME280;37372;52.294;5.152;2022-10-22T06:03:43;100989.31;;;11.59;100.00
51289;BME280;37372;52.294;5.152;2022-10-22T06:06:29;100990.19;;;11.52;100.00
51289;BME280;37372;52.294;5.152;2022-10-22T06:09:03;100987.03;;;11.46;100.00
51289;BME280;37372;52.294;5.152;2022-10-22T06:11:29;100998.25;;;11.50;100.00
51289;BME280;37372;52.294;5.152;2022-10-22T06:13:55;100991.78;;;11.53;100.00
51289;BME280;37372;52.294;5.152;2022-10-22T06:16:20;100998.59;;;11.52;100.00
51289;BME280;37372;52.294;5.152;2022-10-22T06:18:46;101002.97;;;11.57;100.00
51289;BME280;37372;52.294;5.152;2022-10-22T06:21:13;101006.25;;;11.51;100.00
51289;BME280;37372;52.294;5.152;2022-10-22T06:23:39;101007.00;;;11.56;100.00
51289;BME280;37372;52.294;5.152;2022-10-22T06:26:06;101004.53;;;11.61;100.00
51289;BME280;37372;52.294;5.152;2022-10-22T06:28:32;101011.66;;;11.69;100.00
51289;BME280;37372;52.294;5.152;2022-10-22T06:30:58;101010.00;;;11.76;100.00
51289;BME280;37372;52.294;5.152;2022-10-22T06:33:25;101012.72;;;11.83;100.00
51289;BME280;37372;52.294;5.152;2022-10-22T06:35:50;101012.28;;;11.88;100.00
51289;BME280;37372;52.294;5.152;2022-10-22T06:38:16;101017.88;;;11.91;100.00
51289;BME280;37372;52.294;5.152;2022-10-22T06:40:41;101021.84;;;11.94;100.00
51289;BME280;37372;52.294;5.152;2022-10-22T06:43:09;101025.41;;;11.98;100.00
51289;BME280;37372;52.294;5.152;2022-10-22T06:45:35;101034.59;;;12.02;100.00
51289;BME280;37372;52.294;5.152;2022-10-22T06:48:00;101039.38;;;12.05;100.00
51289;BME280;37372;52.294;5.152;2022-10-22T06:50:26;101042.56;;;12.07;100.00
51289;BME280;37372;52.294;5.152;2022-10-22T06:52:51;101041.69;;;12.14;100.00
51289;BME280;37372;52.294;5.152;2022-10-22T06:55:16;101052.50;;;12.15;100.00
51289;BME280;37372;52.294;5.152;2022-10-22T06:57:42;101051.25;;;12.20;100.00
51289;BME280;37372;52.294;5.152;2022-10-22T07:00:08;101057.19;;;12.26;100.00
51289;BME280;37372;52.294;5.152;2022-10-22T07:02:33;101062.34;;;12.31;100.00
51289;BME280;37372;52.294;5.152;2022-10-22T07:04:58;101059.91;;;12.33;100.00
51289;BME280;37372;52.294;5.152;2022-10-22T07:07:24;101068.25;;;12.40;100.00
51289;BME280;37372;52.294;5.152;2022-10-22T07:09:49;101071.44;;;12.42;100.00
51289;BME280;37372;52.294;5.152;2022-10-22T07:12:15;101074.59;;;12.48;100.00
51289;BME280;37372;52.294;5.152;2022-10-22T07:14:41;101069.25;;;12.57;100.00
51289;BME280;37372;52.294;5.152;2022-10-22T07:17:06;101069.19;;;12.60;100.00
51289;BME280;37372;52.294;5.152;2022-10-22T07:19:31;101084.41;;;12.63;100.00
51289;BME280;37372;52.294;5.152;2022-10-22T07:21:57;101079.09;;;12.69;100.00
51289;BME280;37372;52.294;5.152;2022-10-22T07:24:22;101085.50;;;12.73;100.00
51289;BME280;37372;52.294;5.152;2022-10-22T07:26:48;101085.88;;;12.75;100.00
51289;BME280;37372;52.294;5.152;2022-10-22T07:29:13;101086.59;;;12.79;100.00
51289;BME280;37372;52.294;5.152;2022-10-22T07:31:40;101094.47;;;12.91;100.00
51289;BME280;37372;52.294;5.152;2022-10-22T07:34:05;101093.59;;;12.94;100.00
51289;BME280;37372;52.294;5.152;2022-10-22T07:36:31;101099.25;;;12.94;100.00
51289;BME280;37372;52.294;5.152;2022-10-22T07:38:59;101104.00;;;12.97;100.00
51289;BME280;37372;52.294;5.152;2022-10-22T07:41:26;101101.47;;;13.07;100.00
51289;BME280;37372;52.294;5.152;2022-10-22T07:43:52;101100.19;;;13.11;100.00
51289;BME280;37372;52.294;5.152;2022-10-22T07:46:18;101098.44;;;13.21;100.00
51289;BME280;37372;52.294;5.152;2022-10-22T07:48:43;101106.72;;;13.32;100.00
51289;BME280;37372;52.294;5.152;2022-10-22T07:51:09;101111.94;;;13.33;100.00
51289;BME280;37372;52.294;5.152;2022-10-22T07:53:34;101119.09;;;13.38;100.00
51289;BME280;37372;52.294;5.152;2022-10-22T07:56:00;101121.00;;;13.44;100.00
51289;BME280;37372;52.294;5.152;2022-10-22T07:58:25;101117.69;;;13.50;100.00
51289;BME280;37372;52.294;5.152;2022-10-22T08:00:54;101130.81;;;13.60;100.00
51289;BME280;37372;52.294;5.152;2022-10-22T08:03:19;101138.50;;;13.56;100.00
51289;BME280;37372;52.294;5.152;2022-10-22T08:05:45;101143.44;;;13.52;100.00
51289;BME280;37372;52.294;5.152;2022-10-22T08:08:12;101143.38;;;13.55;100.00
51289;BME280;37372;52.294;5.152;2022-10-22T08:10:37;101144.63;;;13.51;100.00
51289;BME280;37372;52.294;5.152;2022-10-22T08:13:03;101148.31;;;13.48;100.00
51289;BME280;37372;52.294;5.152;2022-10-22T08:15:28;101154.34;;;13.50;100.00
51289;BME280;37372;52.294;5.152;2022-10-22T08:17:55;101154.09;;;13.64;100.00
51289;BME280;37372;52.294;5.152;2022-10-22T08:20:21;101160.56;;;13.61;100.00
51289;BME280;37372;52.294;5.152;2022-10-22T08:22:47;101162.91;;;13.66;100.00
51289;BME280;37372;52.294;5.152;2022-10-22T08:25:12;101162.56;;;13.64;100.00
51289;BME280;37372;52.294;5.152;2022-10-22T08:27:38;101164.03;;;13.72;100.00
51289;BME280;37372;52.294;5.152;2022-10-22T08:30:04;101161.44;;;13.81;100.00
51289;BME280;37372;52.294;5.152;2022-10-22T08:32:30;101168.31;;;13.80;100.00
51289;BME280;37372;52.294;5.152;2022-10-22T08:34:55;101178.72;;;13.83;100.00
51289;BME280;37372;52.294;5.152;2022-10-22T08:37:21;101172.47;;;13.72;100.00
51289;BME280;37372;52.294;5.152;2022-10-22T08:39:46;101176.63;;;13.87;100.00
51289;BME280;37372;52.294;5.152;2022-10-22T08:45:09;101166.34;;;13.77;100.00
51289;BME280;37372;52.294;5.152;2022-10-22T08:50:40;101175.84;;;13.87;100.00
51289;BME280;37372;52.294;5.152;2022-10-22T08:53:14;101190.63;;;13.95;100.00
51289;BME280;37372;52.294;5.152;2022-10-22T08:55:40;101193.38;;;13.98;100.00
51289;BME280;37372;52.294;5.152;2022-10-22T08:58:24;101193.91;;;14.13;100.00
51289;BME280;37372;52.294;5.152;2022-10-22T09:06:35;101187.75;;;14.18;100.00
51289;BME280;37372;52.294;5.152;2022-10-22T09:09:10;101197.38;;;14.21;100.00
51289;BME280;37372;52.294;5.152;2022-10-22T09:11:43;101199.44;;;14.40;100.00
51289;BME280;37372;52.294;5.152;2022-10-22T09:14:14;101210.06;;;14.32;100.00
51289;BME280;37372;52.294;5.152;2022-10-22T09:22:55;101223.34;;;14.32;100.00
51289;BME280;37372;52.294;5.152;2022-10-22T09:25:25;101229.09;;;14.28;100.00
51289;BME280;37372;52.294;5.152;2022-10-22T09:27:52;101227.44;;;14.31;100.00
51289;BME280;37372;52.294;5.152;2022-10-22T09:30:24;101239.75;;;14.41;100.00
51289;BME280;37372;52.294;5.152;2022-10-22T09:32:59;101229.66;;;14.40;100.00
51289;BME280;37372;52.294;5.152;2022-10-22T09:35:25;101236.84;;;14.44;100.00
51289;BME280;37372;52.294;5.152;2022-10-22T09:37:55;101239.94;;;14.50;100.00
51289;BME280;37372;52.294;5.152;2022-10-22T09:40:22;101243.53;;;14.54;100.00
51289;BME280;37372;52.294;5.152;2022-10-22T09:42:47;101245.56;;;14.53;100.00
51289;BME280;37372;52.294;5.152;2022-10-22T09:45:24;101241.66;;;14.67;100.00
51289;BME280;37372;52.294;5.152;2022-10-22T09:47:50;101243.97;;;14.72;100.00
51289;BME280;37372;52.294;5.152;2022-10-22T09:50:34;101242.53;;;14.84;100.00
51289;BME280;37372;52.294;5.152;2022-10-22T09:55:42;101255.84;;;15.04;100.00
51289;BME280;37372;52.294;5.152;2022-10-22T09:58:10;101256.00;;;14.96;100.00
51289;BME280;37372;52.294;5.152;2022-10-22T10:00:38;101261.00;;;14.89;100.00
51289;BME280;37372;52.294;5.152;2022-10-22T10:03:03;101272.31;;;14.89;100.00
51289;BME280;37372;52.294;5.152;2022-10-22T10:05:31;101261.56;;;15.00;100.00
51289;BME280;37372;52.294;5.152;2022-10-22T10:07:58;101255.84;;;15.04;100.00
51289;BME280;37372;52.294;5.152;2022-10-22T10:10:32;101262.28;;;15.04;100.00
51289;BME280;37372;52.294;5.152;2022-10-22T10:13:14;101271.84;;;15.10;100.00
51289;BME280;37372;52.294;5.152;2022-10-22T10:16:12;101286.09;;;15.23;100.00
51289;BME280;37372;52.294;5.152;2022-10-22T10:26:54;101297.28;;;15.47;100.00
51289;BME280;37372;52.294;5.152;2022-10-22T10:29:41;101282.03;;;15.60;100.00
51289;BME280;37372;52.294;5.152;2022-10-22T10:37:45;101309.28;;;15.71;100.00
51289;BME280;37372;52.294;5.152;2022-10-22T10:40:15;101309.13;;;15.78;100.00
51289;BME280;37372;52.294;5.152;2022-10-22T10:42:54;101306.66;;;15.80;100.00
51289;BME280;37372;52.294;5.152;2022-10-22T10:51:00;101316.56;;;16.04;100.00
51289;BME280;37372;52.294;5.152;2022-10-22T11:04:40;101320.00;;;16.28;100.00
51289;BME280;37372;52.294;5.152;2022-10-22T11:07:17;101325.41;;;16.39;100.00
51289;BME280;37372;52.294;5.152;2022-10-22T11:09:54;101332.97;;;16.59;100.00
51289;BME280;37372;52.294;5.152;2022-10-22T11:12:26;101328.00;;;16.63;100.00
51289;BME280;37372;52.294;5.152;2022-10-22T11:17:44;101335.59;;;16.82;100.00
51289;BME280;37372;52.294;5.152;2022-10-22T11:20:15;101339.03;;;16.74;100.00
51289;BME280;37372;52.294;5.152;2022-10-22T11:22:53;101341.25;;;16.66;100.00
51289;BME280;37372;52.294;5.152;2022-10-22T11:25:22;101334.75;;;16.53;100.00
51289;BME280;37372;52.294;5.152;2022-10-22T11:28:04;101336.00;;;16.35;100.00
51289;BME280;37372;52.294;5.152;2022-10-22T11:30:34;101334.50;;;16.14;100.00
51289;BME280;37372;52.294;5.152;2022-10-22T11:33:09;101343.97;;;16.08;100.00
51289;BME280;37372;52.294;5.152;2022-10-22T11:35:41;101342.91;;;16.01;100.00
51289;BME280;37372;52.294;5.152;2022-10-22T11:38:12;101343.34;;;15.83;100.00
51289;BME280;37372;52.294;5.152;2022-10-22T11:40:45;101352.44;;;15.75;100.00
51289;BME280;37372;52.294;5.152;2022-10-22T11:43:26;101357.41;;;15.67;98.22
51289;BME280;37372;52.294;5.152;2022-10-22T11:45:57;101361.88;;;15.48;94.77
51289;BME280;37372;52.294;5.152;2022-10-22T11:48:27;101368.25;;;15.52;92.54
51289;BME280;37372;52.294;5.152;2022-10-22T11:50:54;101368.25;;;15.52;91.56
51289;BME280;37372;52.294;5.152;2022-10-22T11:55:57;101369.31;;;15.58;90.49
51289;BME280;37372;52.294;5.152;2022-10-22T11:58:28;101366.34;;;15.66;90.67
51289;BME280;37372;52.294;5.152;2022-10-22T12:11:36;101372.81;;;16.19;86.79
51289;BME280;37372;52.294;5.152;2022-10-22T12:14:25;101384.13;;;16.19;85.79
51289;BME280;37372;52.294;5.152;2022-10-22T12:17:16;101375.75;;;16.32;85.88
51289;BME280;37372;52.294;5.152;2022-10-22T12:19:45;101374.59;;;16.29;85.31
51289;BME280;37372;52.294;5.152;2022-10-22T12:24:47;101369.78;;;16.10;85.67
51289;BME280;37372;52.294;5.152;2022-10-22T12:27:37;101375.13;;;16.24;85.51
51289;BME280;37372;52.294;5.152;2022-10-22T12:30:26;101377.75;;;16.15;85.66
51289;BME280;37372;52.294;5.152;2022-10-22T12:32:53;101377.84;;;16.11;86.18
51289;BME280;37372;52.294;5.152;2022-10-22T12:35:23;101384.56;;;16.01;88.68
51289;BME280;37372;52.294;5.152;2022-10-22T12:37:54;101386.94;;;16.02;88.69
51289;BME280;37372;52.294;5.152;2022-10-22T12:40:28;101385.34;;;16.01;88.78
51289;BME280;37372;52.294;5.152;2022-10-22T12:42:56;101383.59;;;16.08;88.48
51289;BME280;37372;52.294;5.152;2022-10-22T12:45:25;101391.38;;;16.20;87.35
51289;BME280;37372;52.294;5.152;2022-10-22T12:47:55;101380.16;;;16.33;87.01
51289;BME280;37372;52.294;5.152;2022-10-22T12:50:30;101382.72;;;16.43;86.88
51289;BME280;37372;52.294;5.152;2022-10-22T12:52:57;101382.97;;;16.33;88.22
51289;BME280;37372;52.294;5.152;2022-10-22T12:55:24;101390.50;;;16.39;85.83
51289;BME280;37372;52.294;5.152;2022-10-22T12:57:50;101386.06;;;16.38;87.25
51289;BME280;37372;52.294;5.152;2022-10-22T13:00:34;101383.78;;;16.33;87.87
51289;BME280;37372;52.294;5.152;2022-10-22T13:03:05;101385.13;;;16.28;88.95
51289;BME280;37372;52.294;5.152;2022-10-22T13:05:31;101390.50;;;16.23;88.50
51289;BME280;37372;52.294;5.152;2022-10-22T13:08:16;101384.75;;;16.10;88.47
51289;BME280;37372;52.294;5.152;2022-10-22T13:10:49;101391.56;;;16.13;86.24
51289;BME280;37372;52.294;5.152;2022-10-22T13:13:47;101385.25;;;16.05;86.40
51289;BME280;37372;52.294;5.152;2022-10-22T13:16:30;101383.16;;;15.93;87.78
51289;BME280;37372;52.294;5.152;2022-10-22T13:18:57;101386.19;;;15.82;86.22
51289;BME280;37372;52.294;5.152;2022-10-22T13:21:34;101380.63;;;15.78;87.70
51289;BME280;37372;52.294;5.152;2022-10-22T13:24:22;101384.34;;;15.75;87.68
51289;BME280;37372;52.294;5.152;2022-10-22T13:26:49;101389.22;;;15.75;87.79
51289;BME280;37372;52.294;5.152;2022-10-22T13:29:19;101386.03;;;15.73;88.54
51289;BME280;37372;52.294;5.152;2022-10-22T13:31:47;101390.13;;;15.68;87.03
51289;BME280;37372;52.294;5.152;2022-10-22T13:34:17;101382.16;;;15.63;88.67
51289;BME280;37372;52.294;5.152;2022-10-22T13:36:43;101390.88;;;15.72;88.91
51289;BME280;37372;52.294;5.152;2022-10-22T13:39:27;101385.78;;;15.83;87.15
51289;BME280;37372;52.294;5.152;2022-10-22T13:41:52;101398.09;;;15.93;86.90
51289;BME280;37372;52.294;5.152;2022-10-22T13:44:18;101389.75;;;15.86;87.70
51289;BME280;37372;52.294;5.152;2022-10-22T13:46:44;101387.66;;;15.90;88.45
51289;BME280;37372;52.294;5.152;2022-10-22T13:49:16;101399.59;;;15.98;86.00
51289;BME280;37372;52.294;5.152;2022-10-22T13:51:42;101399.72;;;16.11;84.74
51289;BME280;37372;52.294;5.152;2022-10-22T13:54:20;101392.28;;;16.00;84.06
51289;BME280;37372;52.294;5.152;2022-10-22T13:56:46;101395.16;;;15.97;84.29
51289;BME280;37372;52.294;5.152;2022-10-22T13:59:12;101397.00;;;15.87;85.68
51289;BME280;37372;52.294;5.152;2022-10-22T14:01:37;101403.75;;;15.93;83.62
51289;BME280;37372;52.294;5.152;2022-10-22T14:04:05;101398.50;;;15.92;84.73
51289;BME280;37372;52.294;5.152;2022-10-22T14:06:32;101394.22;;;16.03;83.85
51289;BME280;37372;52.294;5.152;2022-10-22T14:09:04;101401.03;;;16.06;85.08
51289;BME280;37372;52.294;5.152;2022-10-22T14:11:32;101395.94;;;15.97;87.05
51289;BME280;37372;52.294;5.152;2022-10-22T14:13:59;101394.47;;;15.93;85.90